Time;durP1;ratioP1;P1;durP2;ratioP2;P2;SDS_P1;SDS_P2;PMS_P1;PMS_P2;Temp;Humidity;BMP_temperature;BMP_pressure;BME280_temperature;BME280_humidity;BME280_pressure;Samples;Min_cycle;Max_cycle;Signal;HPM_P1;HPM_P2
2021/08/18 00:00:41;;;;;;;0.10;0.10;;;;;;;;;;6094308;23;20381;-84
2021/08/18 00:03:08;;;;;;;0.10;0.10;;;;;;;;;;6089409;23;20071;-83
2021/08/18 00:05:34;;;;;;;0.10;0.10;;;;;;;;;;6065517;23;20076;-84
2021/08/18 00:08:01;;;;;;;0.10;0.10;;;;;;;;;;6089579;23;20019;-84
2021/08/18 00:10:28;;;;;;;0.10;0.10;;;;;;;;;;6065683;23;20249;-84
2021/08/18 00:12:54;;;;;;;0.10;0.10;;;;;;;;;;6089623;23;20416;-84
2021/08/18 00:15:20;;;;;;;0.10;0.10;;;;;;;;;;6089483;23;20025;-84
2021/08/18 00:17:46;;;;;;;0.20;0.20;;;;;;;;;;6066356;23;20115;-84
2021/08/18 00:20:12;;;;;;;0.10;0.10;;;;;;;;;;6069067;23;20015;-84
2021/08/18 00:22:38;;;;;;;0.10;0.10;;;;;;;;;;6091486;23;20049;-84
2021/08/18 00:25:05;;;;;;;0.10;0.10;;;;;;;;;;6091232;23;20021;-85
2021/08/18 00:27:31;;;;;;;0.10;0.10;;;;;;;;;;6091493;23;20050;-84
2021/08/18 00:29:57;;;;;;;0.10;0.10;;;;;;;;;;6091392;23;20031;-84
2021/08/18 00:32:24;;;;;;;0.10;0.10;;;;;;;;;;6068891;23;20456;-84
2021/08/18 00:34:50;;;;;;;0.10;0.10;;;;;;;;;;6067500;23;20445;-85
2021/08/18 00:37:16;;;;;;;0.10;0.10;;;;;;;;;;6068834;23;20019;-85
2021/08/18 00:39:42;;;;;;;0.10;0.10;;;;;;;;;;6091524;23;20155;-84
2021/08/18 00:42:09;;;;;;;0.10;0.10;;;;;;;;;;6091424;23;20011;-85
2021/08/18 00:44:35;;;;;;;0.13;0.13;;;;;;;;;;6068806;23;20014;-84
2021/08/18 00:47:01;;;;;;;0.10;0.10;;;;;;;;;;6091285;23;20093;-84
2021/08/18 00:49:27;;;;;;;0.10;0.10;;;;;;;;;;6067380;23;20349;-84
2021/08/18 00:51:57;;;;;;;0.10;0.10;;;;;;;;;;6067032;23;20015;-84
2021/08/18 00:54:23;;;;;;;0.10;0.10;;;;;;;;;;6067002;23;20007;-84
2021/08/18 00:56:49;;;;;;;0.10;0.10;;;;;;;;;;6090938;23;20023;-85
2021/08/18 00:59:15;;;;;;;0.20;0.20;;;;;;;;;;6091051;23;20019;-84
2021/08/18 01:01:41;;;;;;;0.10;0.10;;;;;;;;;;6090658;23;20365;-83
2021/08/18 01:04:07;;;;;;;0.10;0.10;;;;;;;;;;6091173;23;20019;-85
2021/08/18 01:06:34;;;;;;;0.10;0.10;;;;;;;;;;6067217;23;20023;-85
2021/08/18 01:09:00;;;;;;;0.20;0.20;;;;;;;;;;6091174;23;20078;-86
2021/08/18 01:11:27;;;;;;;0.10;0.10;;;;;;;;;;6090689;23;20303;-85
2021/08/18 01:13:53;;;;;;;0.10;0.10;;;;;;;;;;6090696;23;20010;-85
2021/08/18 01:16:19;;;;;;;0.10;0.10;;;;;;;;;;6090751;23;20018;-85
2021/08/18 01:18:45;;;;;;;0.10;0.10;;;;;;;;;;6090884;23;20023;-86
2021/08/18 01:21:11;;;;;;;0.10;0.10;;;;;;;;;;6066872;23;20042;-85
2021/08/18 01:23:37;;;;;;;0.10;0.10;;;;;;;;;;6090791;23;20468;-85
2021/08/18 01:26:04;;;;;;;0.20;0.20;;;;;;;;;;6067096;23;20017;-85
2021/08/18 01:28:30;;;;;;;0.10;0.10;;;;;;;;;;6090149;23;20034;-85
2021/08/18 01:30:56;;;;;;;0.10;0.10;;;;;;;;;;6090631;23;20034;-85
2021/08/18 01:33:22;;;;;;;0.10;0.10;;;;;;;;;;6066985;23;20019;-86
2021/08/18 01:35:49;;;;;;;0.10;0.10;;;;;;;;;;6066722;23;20075;-85
2021/08/18 01:38:16;;;;;;;0.10;0.10;;;;;;;;;;6066457;23;20078;-86
2021/08/18 01:40:43;;;;;;;0.10;0.10;;;;;;;;;;6090568;23;20015;-85
2021/08/18 01:43:10;;;;;;;0.10;0.10;;;;;;;;;;6066578;23;20105;-85
2021/08/18 01:45:39;;;;;;;0.10;0.10;;;;;;;;;;6067148;23;20011;-86
2021/08/18 01:48:16;;;;;;;0.10;0.10;;;;;;;;;;6090546;23;20403;-86
2021/08/18 01:50:42;;;;;;;0.10;0.10;;;;;;;;;;6091240;23;20019;-85
2021/08/18 01:53:08;;;;;;;0.10;0.10;;;;;;;;;;6090562;23;20038;-85
2021/08/18 01:55:35;;;;;;;0.10;0.10;;;;;;;;;;6090734;23;20071;-86
2021/08/18 01:58:01;;;;;;;0.10;0.10;;;;;;;;;;6042302;23;20049;-86
2021/08/18 02:00:28;;;;;;;0.10;0.10;;;;;;;;;;6066668;23;20059;-85
2021/08/18 02:02:54;;;;;;;0.10;0.10;;;;;;;;;;6090187;23;20038;-86
2021/08/18 02:05:22;;;;;;;0.10;0.10;;;;;;;;;;6066285;23;20449;-85
2021/08/18 02:07:48;;;;;;;0.10;0.10;;;;;;;;;;6089431;23;20061;-85
2021/08/18 02:10:16;;;;;;;0.10;0.10;;;;;;;;;;6067932;23;20011;-85
2021/08/18 02:12:42;;;;;;;0.10;0.10;;;;;;;;;;6090270;23;20015;-85
2021/08/18 02:15:12;;;;;;;0.10;0.10;;;;;;;;;;6090541;23;20011;-85
2021/08/18 02:17:39;;;;;;;0.47;0.32;;;;;;;;;;6090338;23;20342;-85
2021/08/18 02:20:06;;;;;;;0.10;0.10;;;;;;;;;;6090198;23;20082;-85
2021/08/18 02:22:32;;;;;;;0.10;0.10;;;;;;;;;;6090265;23;20090;-85
2021/08/18 02:24:58;;;;;;;0.10;0.10;;;;;;;;;;6067681;23;20014;-85
2021/08/18 02:27:24;;;;;;;0.10;0.10;;;;;;;;;;6042010;23;20102;-85
2021/08/18 02:29:50;;;;;;;0.10;0.10;;;;;;;;;;6067720;23;20025;-85
2021/08/18 02:32:16;;;;;;;0.20;0.20;;;;;;;;;;6067818;23;20015;-85
2021/08/18 02:34:43;;;;;;;0.10;0.10;;;;;;;;;;6089994;23;20070;-83
2021/08/18 02:37:09;;;;;;;0.10;0.10;;;;;;;;;;6066483;23;20019;-86
2021/08/18 02:39:36;;;;;;;0.10;0.10;;;;;;;;;;6090136;23;20018;-84
2021/08/18 02:42:02;;;;;;;0.10;0.10;;;;;;;;;;6067703;23;20011;-84
2021/08/18 02:44:28;;;;;;;0.10;0.10;;;;;;;;;;6089808;23;20142;-85
2021/08/18 02:46:54;;;;;;;0.10;0.10;;;;;;;;;;6065818;23;20038;-86
2021/08/18 02:49:20;;;;;;;0.10;0.10;;;;;;;;;;6090360;23;20508;-84
2021/08/18 02:51:46;;;;;;;0.10;0.10;;;;;;;;;;6067366;23;20373;-84
2021/08/18 02:54:12;;;;;;;0.10;0.10;;;;;;;;;;6065861;23;20014;-84
2021/08/18 02:56:38;;;;;;;0.10;0.10;;;;;;;;;;6090149;23;20082;-85
2021/08/18 02:59:04;;;;;;;0.10;0.10;;;;;;;;;;6089998;23;20513;-84
2021/08/18 03:01:32;;;;;;;0.10;0.10;;;;;;;;;;6070898;23;20094;-84
2021/08/18 03:03:58;;;;;;;0.10;0.10;;;;;;;;;;6104429;23;20154;-85
2021/08/18 03:06:24;;;;;;;0.10;0.10;;;;;;;;;;6070683;23;20158;-84
2021/08/18 03:08:50;;;;;;;0.10;0.10;;;;;;;;;;6070318;23;20019;-84
2021/08/18 03:11:16;;;;;;;0.10;0.10;;;;;;;;;;6094877;23;20041;-84
2021/08/18 03:13:42;;;;;;;0.10;0.10;;;;;;;;;;6071078;23;20174;-84
2021/08/18 03:16:08;;;;;;;0.10;0.10;;;;;;;;;;6094760;23;20247;-85
2021/08/18 03:18:34;;;;;;;0.10;0.10;;;;;;;;;;6094650;23;20156;-84
2021/08/18 03:21:02;;;;;;;0.10;0.10;;;;;;;;;;6094747;23;20019;-84
2021/08/18 03:23:28;;;;;;;0.10;0.10;;;;;;;;;;6070660;23;20048;-85
2021/08/18 03:25:54;;;;;;;0.20;0.20;;;;;;;;;;6094745;23;20011;-84
2021/08/18 03:28:20;;;;;;;0.10;0.10;;;;;;;;;;6094473;23;20089;-84
2021/08/18 03:30:46;;;;;;;0.10;0.10;;;;;;;;;;6096104;23;20441;-84
2021/08/18 03:33:12;;;;;;;0.20;0.20;;;;;;;;;;6094717;23;20014;-84
2021/08/18 03:35:39;;;;;;;0.10;0.10;;;;;;;;;;6070497;23;20018;-84
2021/08/18 03:38:04;;;;;;;0.20;0.20;;;;;;;;;;6096016;23;20018;-84
2021/08/18 03:40:31;;;;;;;0.10;0.10;;;;;;;;;;6096100;23;20022;-84
2021/08/18 03:42:57;;;;;;;0.10;0.10;;;;;;;;;;6070620;23;20010;-84
2021/08/18 03:45:24;;;;;;;0.20;0.20;;;;;;;;;;6070772;23;20426;-84
2021/08/18 03:47:50;;;;;;;0.10;0.10;;;;;;;;;;6094350;23;20370;-84
2021/08/18 03:50:16;;;;;;;0.10;0.10;;;;;;;;;;6096027;23;20069;-84
2021/08/18 03:52:42;;;;;;;0.10;0.10;;;;;;;;;;6096037;23;20066;-83
2021/08/18 03:55:09;;;;;;;0.20;0.20;;;;;;;;;;6070061;23;20051;-84
2021/08/18 03:57:35;;;;;;;0.10;0.10;;;;;;;;;;6070150;23;20022;-84
2021/08/18 04:00:01;;;;;;;0.10;0.10;;;;;;;;;;6095856;23;20017;-84
2021/08/18 04:02:31;;;;;;;0.10;0.10;;;;;;;;;;6069775;23;20026;-84
2021/08/18 04:04:57;;;;;;;0.10;0.10;;;;;;;;;;6070706;23;20015;-84
2021/08/18 04:07:27;;;;;;;0.10;0.10;;;;;;;;;;6101550;23;20050;-84
2021/08/18 04:09:53;;;;;;;0.10;0.10;;;;;;;;;;6094595;23;20010;-85
2021/08/18 04:12:19;;;;;;;0.10;0.10;;;;;;;;;;6094599;23;20049;-84
2021/08/18 04:14:47;;;;;;;0.10;0.10;;;;;;;;;;6095641;23;20463;-84
2021/08/18 04:17:13;;;;;;;0.10;0.10;;;;;;;;;;6096004;23;20026;-85
2021/08/18 04:19:39;;;;;;;0.10;0.10;;;;;;;;;;6094494;23;20010;-84
2021/08/18 04:22:06;;;;;;;0.10;0.10;;;;;;;;;;6070643;23;20381;-85
2021/08/18 04:24:32;;;;;;;0.10;0.10;;;;;;;;;;6094577;23;20077;-84
2021/08/18 04:26:58;;;;;;;0.10;0.10;;;;;;;;;;6095539;23;20014;-85
2021/08/18 04:29:24;;;;;;;0.10;0.10;;;;;;;;;;6095868;23;20014;-84
2021/08/18 04:31:50;;;;;;;0.10;0.10;;;;;;;;;;6070118;23;20022;-84
2021/08/18 04:34:16;;;;;;;0.10;0.10;;;;;;;;;;6094668;23;20340;-84
2021/08/18 04:36:43;;;;;;;0.10;0.10;;;;;;;;;;6094404;23;20036;-84
2021/08/18 04:39:10;;;;;;;0.10;0.10;;;;;;;;;;6094323;23;20374;-85
2021/08/18 04:41:36;;;;;;;0.10;0.10;;;;;;;;;;6094233;23;20096;-85
2021/08/18 04:44:03;;;;;;;0.10;0.10;;;;;;;;;;6094078;23;20018;-86
2021/08/18 04:46:29;;;;;;;0.10;0.10;;;;;;;;;;6070072;23;20099;-85
2021/08/18 04:48:55;;;;;;;0.15;0.15;;;;;;;;;;6094140;23;20435;-85
2021/08/18 04:51:21;;;;;;;0.10;0.10;;;;;;;;;;6095916;23;20016;-85
2021/08/18 04:53:48;;;;;;;0.10;0.10;;;;;;;;;;6070216;23;20027;-85
2021/08/18 04:56:14;;;;;;;0.10;0.10;;;;;;;;;;6096035;23;20010;-85
2021/08/18 04:58:45;;;;;;;0.20;0.20;;;;;;;;;;6096311;23;20021;-86
2021/08/18 05:01:11;;;;;;;0.10;0.10;;;;;;;;;;6094381;23;20341;-85
2021/08/18 05:03:38;;;;;;;0.10;0.10;;;;;;;;;;6094202;23;20015;-86
2021/08/18 05:06:05;;;;;;;0.10;0.10;;;;;;;;;;6072115;23;20093;-86
2021/08/18 05:08:32;;;;;;;0.10;0.10;;;;;;;;;;6071887;23;20020;-86
2021/08/18 05:10:58;;;;;;;0.10;0.10;;;;;;;;;;6097401;23;20045;-86
2021/08/18 05:13:24;;;;;;;0.10;0.10;;;;;;;;;;6097343;23;20390;-85
2021/08/18 05:15:50;;;;;;;0.17;0.17;;;;;;;;;;6096094;23;20476;-86
2021/08/18 05:18:16;;;;;;;0.10;0.10;;;;;;;;;;6096001;23;20025;-85
2021/08/18 05:20:42;;;;;;;1.48;1.38;;;;;;;;;;6095893;23;20089;-84
2021/08/18 05:23:08;;;;;;;0.10;0.10;;;;;;;;;;6097228;23;20010;-84
2021/08/18 05:25:51;;;;;;;0.25;0.25;;;;;;;;;;6071331;23;20337;-84
2021/08/18 05:28:18;;;;;;;0.10;0.10;;;;;;;;;;6071976;23;20018;-84
2021/08/18 05:30:55;;;;;;;0.10;0.10;;;;;;;;;;6083610;23;20018;-84
2021/08/18 05:33:22;;;;;;;0.17;0.17;;;;;;;;;;6071855;23;20018;-83
2021/08/18 05:35:49;;;;;;;0.10;0.10;;;;;;;;;;6097434;23;20081;-84
2021/08/18 05:38:17;;;;;;;0.20;0.20;;;;;;;;;;6097095;23;20060;-85
2021/08/18 05:40:43;;;;;;;0.20;0.20;;;;;;;;;;6095641;23;20460;-85
2021/08/18 05:43:13;;;;;;;0.10;0.10;;;;;;;;;;6071215;23;20062;-84
2021/08/18 05:45:39;;;;;;;0.10;0.10;;;;;;;;;;6071286;23;20062;-85
2021/08/18 05:48:05;;;;;;;0.10;0.10;;;;;;;;;;6096094;23;20018;-84
2021/08/18 05:50:31;;;;;;;0.10;0.10;;;;;;;;;;6096428;23;20313;-85
2021/08/18 05:53:00;;;;;;;0.20;0.20;;;;;;;;;;6071337;23;20453;-83
2021/08/18 05:55:28;;;;;;;0.10;0.10;;;;;;;;;;6096145;23;20014;-84
2021/08/18 05:57:54;;;;;;;0.10;0.10;;;;;;;;;;6070360;23;20019;-84
2021/08/18 06:00:20;;;;;;;0.28;0.28;;;;;;;;;;6070855;23;20073;-84
2021/08/18 06:02:47;;;;;;;0.10;0.10;;;;;;;;;;6070922;23;20018;-84
2021/08/18 06:05:13;;;;;;;0.10;0.10;;;;;;;;;;6094605;23;20014;-85
2021/08/18 06:07:39;;;;;;;0.10;0.10;;;;;;;;;;6070399;23;20445;-84
2021/08/18 06:10:05;;;;;;;0.10;0.10;;;;;;;;;;6070925;23;20010;-86
2021/08/18 06:12:31;;;;;;;0.10;0.10;;;;;;;;;;6070787;23;20069;-86
2021/08/18 06:14:57;;;;;;;0.90;0.35;;;;;;;;;;6094705;23;20455;-89
2021/08/18 06:17:23;;;;;;;0.10;0.10;;;;;;;;;;6094826;23;20101;-89
2021/08/18 06:19:50;;;;;;;0.20;0.20;;;;;;;;;;6071081;23;20014;-88
2021/08/18 06:22:16;;;;;;;0.10;0.10;;;;;;;;;;6094722;23;20030;-90
2021/08/18 06:24:42;;;;;;;0.10;0.10;;;;;;;;;;6070763;23;20123;-89
2021/08/18 06:27:09;;;;;;;0.10;0.10;;;;;;;;;;6094516;23;20022;-88
2021/08/18 06:29:35;;;;;;;0.17;0.17;;;;;;;;;;6094592;23;20010;-88
2021/08/18 06:32:02;;;;;;;0.10;0.10;;;;;;;;;;6070708;23;20010;-87
2021/08/18 06:34:28;;;;;;;0.10;0.10;;;;;;;;;;6070497;23;20390;-90
2021/08/18 06:36:54;;;;;;;0.10;0.10;;;;;;;;;;6070713;23;20022;-90
2021/08/18 06:39:24;;;;;;;0.10;0.10;;;;;;;;;;6071255;23;20018;-86
2021/08/18 06:41:50;;;;;;;0.10;0.10;;;;;;;;;;6070864;23;20467;-87
2021/08/18 06:44:17;;;;;;;0.20;0.20;;;;;;;;;;6070202;23;20010;-87
2021/08/18 06:46:43;;;;;;;0.10;0.10;;;;;;;;;;6095555;23;20021;-86
2021/08/18 06:49:09;;;;;;;0.20;0.20;;;;;;;;;;6070165;23;20014;-87
2021/08/18 06:51:35;;;;;;;0.10;0.10;;;;;;;;;;6069888;23;20038;-86
2021/08/18 06:54:02;;;;;;;0.10;0.10;;;;;;;;;;6070501;23;20010;-86
2021/08/18 06:56:28;;;;;;;0.10;0.10;;;;;;;;;;6094408;23;20011;-86
2021/08/18 06:58:54;;;;;;;0.10;0.10;;;;;;;;;;6094305;23;20018;-86
2021/08/18 07:01:20;;;;;;;0.22;0.20;;;;;;;;;;6094074;23;20077;-86
2021/08/18 07:03:46;;;;;;;0.20;0.20;;;;;;;;;;6070285;23;20022;-89
2021/08/18 07:06:12;;;;;;;0.20;0.20;;;;;;;;;;6068850;23;20090;-86
2021/08/18 07:08:38;;;;;;;0.10;0.10;;;;;;;;;;6093666;23;20464;-86
2021/08/18 07:11:04;;;;;;;0.20;0.20;;;;;;;;;;6070495;23;20025;-86
2021/08/18 07:13:30;;;;;;;0.10;0.10;;;;;;;;;;6095755;23;20014;-85
2021/08/18 07:16:02;;;;;;;0.10;0.10;;;;;;;;;;6094129;23;20014;-92
2021/08/18 07:18:28;;;;;;;0.10;0.10;;;;;;;;;;6095685;23;20073;-86
2021/08/18 07:20:54;;;;;;;0.50;0.50;;;;;;;;;;6069737;23;20050;-86
2021/08/18 07:23:20;;;;;;;0.10;0.10;;;;;;;;;;6095270;23;20022;-87
2021/08/18 07:25:46;;;;;;;0.10;0.10;;;;;;;;;;6069818;23;20105;-85
2021/08/18 07:28:12;;;;;;;0.13;0.13;;;;;;;;;;6069043;23;20097;-86
2021/08/18 07:30:38;;;;;;;0.10;0.10;;;;;;;;;;6069440;23;20457;-86
2021/08/18 07:33:04;;;;;;;0.10;0.10;;;;;;;;;;6093676;23;20015;-85
2021/08/18 07:35:30;;;;;;;0.20;0.20;;;;;;;;;;6069777;23;20479;-86
2021/08/18 07:37:56;;;;;;;0.17;0.17;;;;;;;;;;6094088;23;20045;-86
2021/08/18 07:40:25;;;;;;;0.10;0.10;;;;;;;;;;6095661;23;20019;-86
2021/08/18 07:42:52;;;;;;;0.10;0.10;;;;;;;;;;6095714;23;20045;-86
2021/08/18 07:45:18;;;;;;;0.10;0.10;;;;;;;;;;6070098;23;20455;-86
2021/08/18 07:47:45;;;;;;;0.10;0.10;;;;;;;;;;6070000;23;20042;-85
2021/08/18 07:50:12;;;;;;;0.17;0.17;;;;;;;;;;6069787;23;20022;-85
2021/08/18 07:52:38;;;;;;;0.20;0.20;;;;;;;;;;6093969;23;20006;-85
2021/08/18 07:55:05;;;;;;;0.10;0.10;;;;;;;;;;6094218;23;20014;-85
2021/08/18 07:57:34;;;;;;;0.10;0.10;;;;;;;;;;6095346;23;20050;-86
2021/08/18 08:00:00;;;;;;;0.40;0.40;;;;;;;;;;6069612;23;20054;-87
2021/08/18 08:02:26;;;;;;;0.30;0.30;;;;;;;;;;6069971;23;20050;-88
2021/08/18 08:04:52;;;;;;;0.22;0.22;;;;;;;;;;6094287;23;20455;-87
2021/08/18 08:07:18;;;;;;;0.10;0.10;;;;;;;;;;6093872;23;20022;-86
2021/08/18 08:09:44;;;;;;;0.10;0.10;;;;;;;;;;6069624;23;20019;-87
2021/08/18 08:12:10;;;;;;;0.17;0.17;;;;;;;;;;6093992;23;20093;-87
2021/08/18 08:14:36;;;;;;;0.10;0.10;;;;;;;;;;6069941;23;20463;-89
2021/08/18 08:17:02;;;;;;;0.10;0.10;;;;;;;;;;6094113;23;20102;-89
2021/08/18 08:19:28;;;;;;;0.10;0.10;;;;;;;;;;6070356;23;20018;-88
2021/08/18 08:21:54;;;;;;;0.10;0.10;;;;;;;;;;6069530;23;20018;-87
2021/08/18 08:24:20;;;;;;;0.20;0.20;;;;;;;;;;6069905;23;20472;-87
2021/08/18 08:26:46;;;;;;;0.10;0.10;;;;;;;;;;6093517;23;20018;-85
2021/08/18 08:29:12;;;;;;;0.10;0.10;;;;;;;;;;6069307;23;20018;-85
2021/08/18 08:31:39;;;;;;;0.25;0.25;;;;;;;;;;6093948;23;20014;-85
2021/08/18 08:34:05;;;;;;;0.10;0.10;;;;;;;;;;6069616;23;20014;-88
2021/08/18 08:36:31;;;;;;;0.10;0.10;;;;;;;;;;6070046;23;20093;-88
2021/08/18 08:38:57;;;;;;;0.10;0.10;;;;;;;;;;6071331;23;20026;-90
2021/08/18 08:41:25;;;;;;;0.10;0.10;;;;;;;;;;6095814;23;20014;-85
2021/08/18 08:43:51;;;;;;;0.20;0.20;;;;;;;;;;6071620;23;20028;-85
2021/08/18 08:46:17;;;;;;;0.10;0.10;;;;;;;;;;6071424;23;20121;-87
2021/08/18 08:48:43;;;;;;;0.10;0.10;;;;;;;;;;6095360;23;20015;-87
2021/08/18 08:51:09;;;;;;;0.20;0.20;;;;;;;;;;6047403;23;20018;-85
2021/08/18 12:33:16;;;;;;;0.10;0.10;;;;;;;;;;6196899;22;1456666;-91
2021/08/18 12:35:46;;;;;;;0.10;0.10;;;;;;;;;;6227707;23;20042;-93
2021/08/18 12:38:12;;;;;;;0.10;0.10;;;;;;;;;;6229121;23;20058;-92
2021/08/18 12:40:38;;;;;;;0.10;0.10;;;;;;;;;;6227487;23;20016;-92
2021/08/18 12:43:06;;;;;;;0.10;0.10;;;;;;;;;;6227918;23;20050;-92
2021/08/18 12:45:34;;;;;;;0.10;0.10;;;;;;;;;;6252719;23;20012;-93
2021/08/18 12:48:00;;;;;;;0.10;0.10;;;;;;;;;;6252855;23;20008;-93
2021/08/18 12:50:28;;;;;;;0.10;0.10;;;;;;;;;;6227367;23;20336;-93
2021/08/18 12:52:55;;;;;;;0.10;0.10;;;;;;;;;;6227831;23;20022;-92
2021/08/18 12:55:21;;;;;;;0.10;0.10;;;;;;;;;;6252287;23;20444;-91
2021/08/18 12:57:47;;;;;;;0.20;0.20;;;;;;;;;;6228945;23;20433;-94
2021/08/18 13:00:15;;;;;;;0.10;0.10;;;;;;;;;;6240003;23;20031;-92
2021/08/18 13:02:42;;;;;;;0.10;0.10;;;;;;;;;;6234647;23;20011;-92
2021/08/18 13:05:08;;;;;;;0.10;0.10;;;;;;;;;;6265492;22;20023;-89
2021/08/18 13:07:34;;;;;;;0.10;0.10;;;;;;;;;;6261503;23;20012;-90
2021/08/18 13:10:00;;;;;;;0.10;0.10;;;;;;;;;;6252204;23;20077;-91
2021/08/18 13:12:27;;;;;;;0.10;0.10;;;;;;;;;;6258529;22;20007;-91
2021/08/18 13:14:53;;;;;;;0.10;0.10;;;;;;;;;;6254669;22;20012;-90
2021/08/18 13:17:19;;;;;;;0.15;0.15;;;;;;;;;;6254774;22;20008;-89
2021/08/18 13:19:45;;;;;;;0.10;0.10;;;;;;;;;;6256885;23;20373;-93
2021/08/18 13:22:11;;;;;;;0.10;0.10;;;;;;;;;;6258214;22;20413;-93
2021/08/18 13:24:37;;;;;;;0.13;0.13;;;;;;;;;;6258831;23;20016;-92
2021/08/18 13:27:07;;;;;;;0.10;0.10;;;;;;;;;;6243349;23;20063;-89
2021/08/18 13:29:33;;;;;;;0.20;0.20;;;;;;;;;;6278085;22;20007;-90
2021/08/18 13:31:59;;;;;;;0.20;0.20;;;;;;;;;;6275372;22;20035;-90
2021/08/18 13:34:25;;;;;;;0.55;0.30;;;;;;;;;;6238400;23;20078;-92
2021/08/18 13:36:51;;;;;;;0.10;0.10;;;;;;;;;;6248308;23;20016;-91
2021/08/18 13:39:18;;;;;;;0.10;0.10;;;;;;;;;;6246364;23;20012;-90
2021/08/18 13:41:44;;;;;;;0.20;0.20;;;;;;;;;;6246735;23;20019;-90
2021/08/18 13:44:10;;;;;;;0.10;0.10;;;;;;;;;;6246348;23;20020;-90
2021/08/18 13:46:36;;;;;;;0.20;0.20;;;;;;;;;;6247041;23;20337;-90
2021/08/18 13:49:02;;;;;;;0.38;0.38;;;;;;;;;;6221965;23;20072;-90
2021/08/18 13:51:29;;;;;;;0.10;0.10;;;;;;;;;;6247786;23;20042;-90
2021/08/18 13:53:55;;;;;;;0.50;0.50;;;;;;;;;;6220286;23;20067;-90
2021/08/18 13:56:21;;;;;;;0.10;0.10;;;;;;;;;;6245111;23;20058;-91
2021/08/18 13:58:48;;;;;;;0.10;0.10;;;;;;;;;;6220570;23;20349;-89
2021/08/18 14:01:14;;;;;;;0.10;0.10;;;;;;;;;;6220199;23;20091;-91
2021/08/18 14:03:40;;;;;;;0.20;0.20;;;;;;;;;;6243196;23;20069;-93
2021/08/18 14:06:06;;;;;;;0.13;0.13;;;;;;;;;;6245782;23;20012;-91
2021/08/18 14:08:36;;;;;;;0.20;0.20;;;;;;;;;;6220538;23;20012;-93
2021/08/18 14:11:02;;;;;;;0.60;0.60;;;;;;;;;;6220792;23;20379;-88
2021/08/18 14:13:28;;;;;;;0.28;0.22;;;;;;;;;;6245590;23;20336;-93
2021/08/18 14:16:03;;;;;;;0.10;0.10;;;;;;;;;;6245155;23;20044;-91
2021/08/18 14:18:29;;;;;;;0.10;0.10;;;;;;;;;;6232698;23;20012;-95
2021/08/18 14:20:58;;;;;;;0.10;0.10;;;;;;;;;;6220886;23;20087;-91
2021/08/18 14:23:24;;;;;;;0.20;0.20;;;;;;;;;;6220961;23;20062;-90
2021/08/18 14:25:51;;;;;;;0.10;0.10;;;;;;;;;;6245849;23;20008;-90
2021/08/18 14:28:17;;;;;;;3.50;0.40;;;;;;;;;;6244867;23;20455;-91
2021/08/18 14:30:43;;;;;;;0.20;0.20;;;;;;;;;;6219276;23;20086;-91
2021/08/18 14:33:09;;;;;;;0.10;0.10;;;;;;;;;;6249967;23;20305;-90
2021/08/18 14:35:35;;;;;;;0.10;0.10;;;;;;;;;;6220244;23;20122;-91
2021/08/18 14:38:02;;;;;;;0.20;0.20;;;;;;;;;;6245619;23;20012;-96
2021/08/18 14:40:28;;;;;;;0.20;0.20;;;;;;;;;;6220687;23;20012;-93
2021/08/18 14:42:54;;;;;;;0.10;0.10;;;;;;;;;;6196423;23;20083;-96
2021/08/18 14:45:25;;;;;;;0.10;0.10;;;;;;;;;;6221875;23;20009;-95
2021/08/18 14:47:51;;;;;;;0.10;0.10;;;;;;;;;;6256756;23;20008;-94
2021/08/18 14:50:17;;;;;;;0.25;0.17;;;;;;;;;;6245979;23;20012;-92
2021/08/18 14:52:43;;;;;;;0.17;0.17;;;;;;;;;;6247208;23;20485;-91
2021/08/18 14:55:10;;;;;;;0.82;0.82;;;;;;;;;;6245157;23;20008;-92
2021/08/18 14:57:36;;;;;;;0.20;0.20;;;;;;;;;;6245573;23;20454;-96
2021/08/18 15:00:06;;;;;;;0.20;0.20;;;;;;;;;;6245988;23;20036;-93
2021/08/18 15:02:32;;;;;;;0.13;0.13;;;;;;;;;;6220340;23;20138;-95
2021/08/18 15:04:59;;;;;;;0.30;0.30;;;;;;;;;;6221633;23;20054;-94
2021/08/18 15:07:27;;;;;;;0.20;0.20;;;;;;;;;;6221287;23;20020;-94
2021/08/18 15:09:53;;;;;;;0.20;0.20;;;;;;;;;;6247831;23;20388;-93
2021/08/18 15:12:19;;;;;;;0.30;0.30;;;;;;;;;;6245544;23;20035;-95
2021/08/18 15:14:45;;;;;;;0.20;0.20;;;;;;;;;;6246337;23;20015;-94
2021/08/18 15:17:15;;;;;;;0.10;0.10;;;;;;;;;;6194542;23;20015;-95
2021/08/18 15:19:42;;;;;;;0.63;0.52;;;;;;;;;;6220223;23;20448;-94
2021/08/18 15:22:08;;;;;;;0.10;0.10;;;;;;;;;;6246787;23;20028;-93
2021/08/18 15:24:34;;;;;;;0.10;0.10;;;;;;;;;;6246150;23;20421;-94
2021/08/18 15:27:01;;;;;;;1.15;0.47;;;;;;;;;;6219034;23;20012;-95
2021/08/18 15:29:27;;;;;;;0.15;0.15;;;;;;;;;;6219041;23;20008;-92
2021/08/18 15:31:53;;;;;;;0.50;0.50;;;;;;;;;;6245636;23;20024;-92
2021/08/18 15:34:20;;;;;;;0.63;0.50;;;;;;;;;;6246130;23;20008;-91
2021/08/18 15:36:47;;;;;;;0.25;0.25;;;;;;;;;;6193368;23;20318;-90
2021/08/18 15:39:14;;;;;;;0.22;0.22;;;;;;;;;;6243308;23;20039;-92
2021/08/18 15:41:41;;;;;;;0.20;0.20;;;;;;;;;;6247633;23;20178;-95
2021/08/18 15:44:07;;;;;;;0.10;0.10;;;;;;;;;;6221385;23;20049;-96
2021/08/18 15:46:34;;;;;;;0.20;0.20;;;;;;;;;;6220407;23;20482;-94
2021/08/18 15:49:00;;;;;;;0.20;0.20;;;;;;;;;;6221603;23;20382;-95
2021/08/18 15:51:26;;;;;;;0.20;0.20;;;;;;;;;;6245045;23;20012;-94
2021/08/18 15:53:52;;;;;;;0.20;0.20;;;;;;;;;;6244506;23;20012;-94
2021/08/18 15:56:18;;;;;;;0.20;0.20;;;;;;;;;;6244320;23;20464;-93
2021/08/18 15:58:44;;;;;;;0.20;0.20;;;;;;;;;;6193541;23;20016;-95
2021/08/18 16:01:10;;;;;;;0.10;0.10;;;;;;;;;;6245648;23;20012;-96
2021/08/18 16:03:40;;;;;;;0.52;0.52;;;;;;;;;;6199181;23;20129;-92
2021/08/18 16:06:06;;;;;;;1.77;0.52;;;;;;;;;;6244271;23;20012;-93
2021/08/18 16:08:32;;;;;;;0.80;0.80;;;;;;;;;;6243968;23;20012;-93
2021/08/18 16:10:58;;;;;;;0.17;0.17;;;;;;;;;;6244356;23;20022;-92
2021/08/18 16:13:24;;;;;;;0.52;0.52;;;;;;;;;;6245478;23;20039;-92
2021/08/18 16:15:50;;;;;;;0.30;0.30;;;;;;;;;;6221233;23;20012;-96
2021/08/18 16:18:17;;;;;;;0.20;0.20;;;;;;;;;;6219094;23;20023;-94
2021/08/18 16:20:43;;;;;;;0.20;0.20;;;;;;;;;;6218629;23;20384;-93
2021/08/18 16:23:09;;;;;;;0.17;0.17;;;;;;;;;;6244010;23;20020;-93
2021/08/18 16:25:35;;;;;;;0.10;0.10;;;;;;;;;;6218460;23;20023;-94
2021/08/18 16:28:02;;;;;;;0.20;0.20;;;;;;;;;;6244538;23;20012;-95
2021/08/18 16:30:28;;;;;;;0.47;0.47;;;;;;;;;;6244453;23;20018;-95
2021/08/18 16:32:55;;;;;;;0.52;0.40;;;;;;;;;;6244358;23;20030;-94
2021/08/18 16:35:21;;;;;;;0.10;0.10;;;;;;;;;;6244064;23;20023;-94
2021/08/18 16:37:47;;;;;;;0.20;0.20;;;;;;;;;;6243852;23;20016;-92
2021/08/18 16:40:14;;;;;;;0.20;0.20;;;;;;;;;;6218677;23;20345;-93
2021/08/18 16:42:40;;;;;;;0.20;0.20;;;;;;;;;;6243602;23;20016;-93
2021/08/18 16:45:06;;;;;;;0.20;0.20;;;;;;;;;;6218247;23;20066;-93
2021/08/18 16:47:32;;;;;;;0.20;0.20;;;;;;;;;;6244066;23;20012;-93
2021/08/18 16:49:58;;;;;;;0.20;0.20;;;;;;;;;;6244558;23;20441;-95
2021/08/18 16:52:24;;;;;;;0.20;0.20;;;;;;;;;;6219268;23;20385;-92
2021/08/18 16:54:50;;;;;;;0.20;0.20;;;;;;;;;;6243757;23;20015;-92
2021/08/18 16:57:16;;;;;;;0.20;0.20;;;;;;;;;;6244749;23;20032;-94
2021/08/18 16:59:45;;;;;;;0.55;0.30;;;;;;;;;;6219667;23;20008;-94
2021/08/18 17:02:11;;;;;;;0.20;0.20;;;;;;;;;;6193823;23;20008;-95
2021/08/18 17:04:38;;;;;;;0.30;0.30;;;;;;;;;;6219779;23;20016;-95
2021/08/18 17:07:04;;;;;;;0.20;0.20;;;;;;;;;;6247868;23;20368;-96
2021/08/18 17:09:30;;;;;;;0.40;0.40;;;;;;;;;;6220644;23;20077;-94
2021/08/18 17:12:00;;;;;;;0.30;0.30;;;;;;;;;;6222401;23;20012;-93
2021/08/18 17:14:30;;;;;;;0.28;0.28;;;;;;;;;;6259719;23;20015;-94
2021/08/18 17:16:56;;;;;;;0.10;0.10;;;;;;;;;;6244001;23;20012;-94
2021/08/18 17:19:23;;;;;;;0.10;0.10;;;;;;;;;;6196158;23;20015;-94
2021/08/18 17:21:49;;;;;;;0.10;0.10;;;;;;;;;;6246609;23;20023;-93
2021/08/18 17:24:15;;;;;;;0.20;0.20;;;;;;;;;;6246252;23;20013;-93
2021/08/18 17:26:41;;;;;;;0.10;0.10;;;;;;;;;;6220608;23;20008;-94
2021/08/18 17:29:07;;;;;;;0.20;0.20;;;;;;;;;;6245692;23;20455;-93
2021/08/18 17:31:33;;;;;;;0.15;0.15;;;;;;;;;;6220206;23;20020;-92
2021/08/18 17:33:59;;;;;;;0.15;0.15;;;;;;;;;;6220467;23;20016;-93
2021/08/18 17:36:25;;;;;;;0.30;0.30;;;;;;;;;;6245802;23;20018;-92
2021/08/18 17:38:52;;;;;;;0.50;0.32;;;;;;;;;;6220014;23;20035;-91
2021/08/18 17:41:19;;;;;;;0.10;0.10;;;;;;;;;;6244672;23;20012;-92
2021/08/18 17:43:47;;;;;;;0.20;0.20;;;;;;;;;;6220421;23;20012;-91
2021/08/18 17:46:13;;;;;;;0.20;0.20;;;;;;;;;;6219661;23;20024;-91
2021/08/18 17:48:39;;;;;;;0.20;0.20;;;;;;;;;;6244800;23;20398;-93
2021/08/18 17:51:06;;;;;;;0.20;0.20;;;;;;;;;;6220096;23;20503;-93
2021/08/18 17:53:32;;;;;;;0.20;0.20;;;;;;;;;;6244580;23;20078;-92
2021/08/18 17:55:58;;;;;;;0.20;0.20;;;;;;;;;;6219311;23;20338;-94
2021/08/18 17:58:24;;;;;;;0.10;0.10;;;;;;;;;;6223254;23;20086;-93
2021/08/18 18:00:50;;;;;;;0.20;0.20;;;;;;;;;;6244943;23;20042;-93
2021/08/18 18:03:17;;;;;;;0.10;0.10;;;;;;;;;;6243987;23;20012;-92
2021/08/18 18:05:43;;;;;;;0.10;0.10;;;;;;;;;;6244342;23;20013;-90
2021/08/18 18:08:09;;;;;;;0.52;0.22;;;;;;;;;;6244514;23;20524;-92
2021/08/18 18:10:36;;;;;;;0.20;0.20;;;;;;;;;;6244280;23;20012;-90
2021/08/18 18:13:02;;;;;;;0.17;0.17;;;;;;;;;;6219509;23;20012;-94
2021/08/18 18:15:28;;;;;;;0.10;0.10;;;;;;;;;;6219755;23;20027;-94
2021/08/18 18:17:54;;;;;;;0.25;0.25;;;;;;;;;;6247972;23;20008;-94